Time;durP1;ratioP1;P1;durP2;ratioP2;P2;SDS_P1;SDS_P2;PMS_P1;PMS_P2;Temp;Humidity;BMP_temperature;BMP_pressure;BME280_temperature;BME280_humidity;BME280_pressure;Samples;Min_cycle;Max_cycle;Signal;HPM_P1;HPM_P2
2021/03/15 00:01:07;;;;;;;8.75;1.02;;;4.20;99.90;;;;;;4938155;28;20425;-81
2021/03/15 00:03:32;;;;;;;3.45;0.90;;;4.10;99.90;;;;;;4940400;28;20615;-80
2021/03/15 00:05:55;;;;;;;2.97;0.73;;;4.10;99.90;;;;;;4930326;28;20098;-80
2021/03/15 00:08:18;;;;;;;8.98;1.20;;;4.10;99.90;;;;;;4942472;28;20090;-80
2021/03/15 00:10:42;;;;;;;4.30;1.00;;;4.10;99.90;;;;;;4940929;28;20546;-79
2021/03/15 00:13:07;;;;;;;9.07;1.15;;;4.10;99.90;;;;;;4939413;28;20093;-81
2021/03/15 00:15:31;;;;;;;11.38;1.15;;;4.00;99.90;;;;;;4942467;28;20116;-80
2021/03/15 00:17:54;;;;;;;4.85;1.38;;;4.00;99.90;;;;;;4939987;28;20078;-81
2021/03/15 00:20:18;;;;;;;9.30;1.38;;;4.00;99.90;;;;;;4941680;28;20085;-80
2021/03/15 00:22:43;;;;;;;11.40;1.55;;;4.00;99.90;;;;;;4936187;28;20620;-80
2021/03/15 00:25:07;;;;;;;10.15;1.48;;;4.00;99.90;;;;;;4935530;28;20148;-80
2021/03/15 00:27:31;;;;;;;3.13;1.05;;;4.00;99.90;;;;;;4939528;28;20608;-80
2021/03/15 00:29:54;;;;;;;8.18;0.90;;;4.10;99.90;;;;;;4936664;28;20100;-81
2021/03/15 00:32:18;;;;;;;10.23;1.20;;;4.00;99.90;;;;;;4942478;28;20464;-81
2021/03/15 00:34:40;;;;;;;10.98;1.17;;;4.00;99.90;;;;;;4938746;28;20087;-80
2021/03/15 00:37:03;;;;;;;8.65;1.20;;;4.00;99.90;;;;;;4943061;28;20109;-81
2021/03/15 00:39:26;;;;;;;8.30;1.02;;;4.00;99.90;;;;;;4938935;28;20082;-80
2021/03/15 00:41:49;;;;;;;11.90;1.00;;;4.00;99.90;;;;;;4927283;28;20112;-80
2021/03/15 00:44:13;;;;;;;8.02;1.10;;;4.00;99.90;;;;;;4939079;28;20209;-81
2021/03/15 00:46:37;;;;;;;6.78;1.13;;;3.90;99.90;;;;;;4937526;28;20090;-82
2021/03/15 00:48:59;;;;;;;7.13;1.08;;;3.90;99.90;;;;;;4937650;28;20175;-79
2021/03/15 00:51:23;;;;;;;7.55;1.15;;;3.90;99.90;;;;;;4937527;28;20125;-80
2021/03/15 00:53:46;;;;;;;9.40;1.48;;;3.90;99.90;;;;;;4925347;28;20085;-80
2021/03/15 00:56:08;;;;;;;12.15;1.35;;;3.90;99.90;;;;;;4941259;27;20094;-80
2021/03/15 00:58:31;;;;;;;12.18;1.17;;;3.90;99.90;;;;;;4927662;28;21943;-80
2021/03/15 01:00:55;;;;;;;10.63;1.38;;;3.90;99.90;;;;;;4937617;28;20102;-80
2021/03/15 01:03:18;;;;;;;3.35;1.10;;;3.90;99.90;;;;;;4941762;28;20078;-80
2021/03/15 01:05:44;;;;;;;3.75;1.20;;;3.90;99.90;;;;;;4927969;28;22168;-79
2021/03/15 01:08:08;;;;;;;12.20;1.40;;;3.90;99.90;;;;;;4941840;28;20078;-81
2021/03/15 01:10:35;;;;;;;8.95;1.48;;;3.90;99.90;;;;;;4935012;28;20086;-80
2021/03/15 01:12:57;;;;;;;10.38;1.40;;;3.90;99.90;;;;;;4919706;28;21002;-79
2021/03/15 01:15:22;;;;;;;13.25;1.25;;;3.90;99.90;;;;;;4939672;28;20144;-80
2021/03/15 01:17:45;;;;;;;6.95;1.00;;;3.80;99.90;;;;;;4932069;28;20089;-81
2021/03/15 01:20:09;;;;;;;7.72;1.00;;;3.80;99.90;;;;;;4938940;28;20498;-80
2021/03/15 01:22:32;;;;;;;5.25;0.85;;;3.80;99.90;;;;;;4932834;28;20090;-80
2021/03/15 01:24:55;;;;;;;7.07;0.98;;;3.90;99.90;;;;;;4936396;28;20085;-81
2021/03/15 01:27:17;;;;;;;11.35;1.45;;;3.80;99.90;;;;;;4936308;28;20078;-80
2021/03/15 01:29:44;;;;;;;8.57;1.10;;;3.80;99.90;;;;;;4937545;28;20161;-82
2021/03/15 01:32:07;;;;;;;8.57;1.40;;;3.80;99.90;;;;;;4932191;28;20086;-80
2021/03/15 01:34:31;;;;;;;4.10;0.82;;;3.80;99.90;;;;;;4939716;28;20096;-79
2021/03/15 01:36:54;;;;;;;5.72;0.90;;;3.70;99.90;;;;;;4939658;28;20090;-80
2021/03/15 01:39:16;;;;;;;8.07;0.88;;;3.70;99.90;;;;;;4939290;28;20098;-80
2021/03/15 01:41:45;;;;;;;7.10;1.05;;;3.60;99.90;;;;;;4929052;28;20086;-80
2021/03/15 01:44:09;;;;;;;14.43;1.75;;;3.50;99.90;;;;;;4933755;28;20487;-80
2021/03/15 01:46:32;;;;;;;8.05;1.27;;;3.40;99.90;;;;;;4939141;28;20128;-79
2021/03/15 01:48:54;;;;;;;12.02;1.17;;;3.40;99.90;;;;;;4940109;28;20082;-81
2021/03/15 01:51:19;;;;;;;5.95;1.27;;;;;;;;;;4937010;28;20590;-81
2021/03/15 01:53:44;;;;;;;21.33;1.52;;;3.20;99.90;;;;;;4936592;28;20094;-80
2021/03/15 01:56:08;;;;;;;13.63;1.20;;;3.20;99.90;;;;;;4936788;28;20503;-82
2021/03/15 01:58:31;;;;;;;12.65;1.40;;;3.20;99.90;;;;;;4935869;28;20093;-79
2021/03/15 02:00:54;;;;;;;8.77;0.85;;;3.10;99.90;;;;;;4939526;28;20086;-79
2021/03/15 02:03:19;;;;;;;6.22;1.33;;;3.20;99.90;;;;;;4928436;28;20469;-79
2021/03/15 02:05:42;;;;;;;14.43;1.50;;;3.30;99.90;;;;;;4926433;28;20086;-80
2021/03/15 02:08:07;;;;;;;8.65;1.52;;;3.30;99.90;;;;;;4939406;28;20109;-80
2021/03/15 02:10:30;;;;;;;7.27;1.47;;;3.30;99.90;;;;;;4937650;28;20548;-80
2021/03/15 02:13:40;;;;;;;11.63;1.88;;;3.30;99.90;;;;;;4936903;28;20922;-79
2021/03/15 02:16:08;;;;;;;11.13;1.70;;;3.20;99.90;;;;;;4931044;28;20090;-80
2021/03/15 02:18:43;;;;;;;8.02;1.67;;;3.10;99.90;;;;;;4933099;28;20089;-81
2021/03/15 02:21:46;;;;;;;10.15;2.13;;;3.00;99.90;;;;;;4931019;28;20535;-80
2021/03/15 02:24:16;;;;;;;7.85;1.52;;;2.90;99.90;;;;;;4939189;28;20440;-80
2021/03/15 02:27:10;;;;;;;21.65;2.72;;;2.90;99.90;;;;;;4938039;28;20429;-81
2021/03/15 02:30:15;;;;;;;16.52;3.00;;;2.90;99.90;;;;;;4931252;28;20093;-80
2021/03/15 02:33:23;;;;;;;14.15;2.92;;;2.80;99.90;;;;;;4886027;28;20085;-80
2021/03/15 02:35:47;;;;;;;15.80;2.50;;;2.80;99.90;;;;;;4925084;28;20085;-81
2021/03/15 02:38:13;;;;;;;11.68;2.72;;;2.70;99.90;;;;;;4934963;28;20075;-80
2021/03/15 02:40:38;;;;;;;;;;;2.70;99.90;;;;;;4936607;28;20108;-81
2021/03/15 02:43:07;;;;;;;14.43;2.43;;;2.60;99.90;;;;;;4939584;28;20004;-82
2021/03/15 02:45:35;;;;;;;13.65;2.75;;;2.60;99.90;;;;;;4943374;28;20093;-81
2021/03/15 02:47:59;;;;;;;11.38;2.30;;;2.60;99.90;;;;;;4938721;28;20165;-81
2021/03/15 02:50:26;;;;;;;10.23;2.72;;;2.60;99.90;;;;;;4928357;28;20468;-80
2021/03/15 02:52:52;;;;;;;13.77;2.55;;;2.60;99.90;;;;;;4937115;28;20087;-81
2021/03/15 02:55:20;;;;;;;13.63;2.58;;;2.70;99.90;;;;;;4937824;28;20430;-80
2021/03/15 02:57:45;;;;;;;14.60;3.28;;;2.80;99.90;;;;;;4931352;28;20090;-80
2021/03/15 03:00:16;;;;;;;8.93;2.75;;;2.90;99.90;;;;;;4939366;28;20079;-80
2021/03/15 03:02:43;;;;;;;18.33;3.45;;;2.00;99.90;;;;;;4933283;28;20135;-80
2021/03/15 03:05:17;;;;;;;9.27;3.38;;;2.90;99.90;;;;;;4936069;28;20153;-80
2021/03/15 03:07:42;;;;;;;6.18;2.80;;;2.90;99.90;;;;;;4936572;28;20078;-81
2021/03/15 03:10:08;;;;;;;11.52;2.90;;;2.90;99.90;;;;;;4938243;28;20090;-81
2021/03/15 03:12:33;;;;;;;8.98;2.80;;;2.90;99.90;;;;;;4937137;28;20111;-81
2021/03/15 03:14:58;;;;;;;15.27;2.80;;;2.80;99.90;;;;;;4937587;28;20102;-81
2021/03/15 03:17:22;;;;;;;;;;;2.70;99.90;;;;;;4939070;27;21565;-81
2021/03/15 03:19:48;;;;;;;9.57;3.47;;;2.70;99.90;;;;;;4941977;28;19962;-80
2021/03/15 03:22:16;;;;;;;12.32;2.85;;;2.70;99.90;;;;;;4940472;28;20090;-82
2021/03/15 03:24:42;;;;;;;16.48;2.83;;;2.60;99.90;;;;;;4929813;28;20469;-81
2021/03/15 03:27:07;;;;;;;8.75;2.60;;;2.60;99.90;;;;;;4943874;27;20449;-81
2021/03/15 03:29:32;;;;;;;14.25;2.70;;;2.60;99.90;;;;;;4938973;28;20078;-80
2021/03/15 03:31:58;;;;;;;8.98;2.75;;;2.50;99.90;;;;;;4929199;28;20097;-80
2021/03/15 03:34:23;;;;;;;11.13;2.67;;;2.50;99.90;;;;;;4933506;28;20094;-80
2021/03/15 03:36:46;;;;;;;10.25;2.40;;;2.50;99.90;;;;;;4937488;28;20429;-83
2021/03/15 03:39:11;;;;;;;8.02;2.38;;;2.50;99.90;;;;;;4941249;28;20086;-79
2021/03/15 03:41:35;;;;;;;11.05;2.38;;;2.50;99.90;;;;;;4929242;28;20123;-80
2021/03/15 03:44:01;;;;;;;13.40;2.17;;;2.50;99.90;;;;;;4945898;28;20074;-80
2021/03/15 03:46:24;;;;;;;9.48;2.08;;;2.50;99.90;;;;;;4935624;28;20110;-80
2021/03/15 03:48:46;;;;;;;11.90;2.30;;;2.50;99.90;;;;;;4929585;28;20094;-80
2021/03/15 03:51:12;;;;;;;11.10;2.42;;;2.60;99.90;;;;;;4925484;28;20703;-80
2021/03/15 03:53:42;;;;;;;9.18;2.15;;;2.70;99.90;;;;;;4942482;28;20082;-81
2021/03/15 03:56:09;;;;;;;11.77;1.80;;;2.80;99.90;;;;;;4928212;28;20085;-80
2021/03/15 03:58:39;;;;;;;12.45;2.17;;;2.90;99.90;;;;;;4939305;28;20088;-80
2021/03/15 04:01:07;;;;;;;8.45;2.08;;;2.90;99.90;;;;;;4938045;28;20168;-80
2021/03/15 04:03:30;;;;;;;6.28;1.85;;;2.90;99.90;;;;;;4932531;28;20089;-81
2021/03/15 04:05:58;;;;;;;23.50;1.60;;;2.90;99.90;;;;;;4937354;28;20090;-80
2021/03/15 04:08:27;;;;;;;7.63;1.35;;;2.90;99.90;;;;;;4939921;28;20086;-81
2021/03/15 04:10:53;;;;;;;7.15;1.70;;;2.90;99.90;;;;;;4934160;28;20474;-80
2021/03/15 04:13:20;;;;;;;10.07;1.95;;;3.00;99.90;;;;;;4943115;28;20081;-80
2021/03/15 04:15:47;;;;;;;4.25;1.30;;;3.00;99.90;;;;;;4939202;28;20082;-81
2021/03/15 04:18:13;;;;;;;5.40;1.23;;;2.90;99.90;;;;;;4938198;28;20100;-80
2021/03/15 04:20:38;;;;;;;10.77;1.88;;;3.00;99.90;;;;;;4942723;28;20082;-82
2021/03/15 04:23:11;;;;;;;5.75;1.65;;;2.90;99.90;;;;;;4939306;28;20142;-81
2021/03/15 04:25:36;;;;;;;3.40;1.20;;;3.00;99.90;;;;;;4926782;28;20547;-81
2021/03/15 04:28:01;;;;;;;12.55;1.98;;;3.00;99.90;;;;;;4938217;28;20174;-81
2021/03/15 04:30:26;;;;;;;4.55;1.10;;;3.00;99.90;;;;;;4938724;28;20081;-80
2021/03/15 04:32:53;;;;;;;5.18;1.40;;;3.00;99.90;;;;;;4941678;28;20086;-80
2021/03/15 04:35:17;;;;;;;11.18;0.88;;;3.00;99.90;;;;;;4943488;28;20177;-81
2021/03/15 04:37:41;;;;;;;11.40;1.80;;;3.00;99.90;;;;;;4934728;28;20094;-80
2021/03/15 04:40:08;;;;;;;3.83;1.00;;;3.00;99.90;;;;;;4940707;28;20529;-81
2021/03/15 04:42:31;;;;;;;7.20;1.10;;;3.00;99.90;;;;;;4934183;28;20086;-80
2021/03/15 04:44:54;;;;;;;6.90;1.42;;;;;;;;;;4937369;28;20090;-80
2021/03/15 04:47:17;;;;;;;12.27;1.33;;;3.00;99.90;;;;;;4938654;28;20086;-79
2021/03/15 04:49:41;;;;;;;6.28;1.55;;;3.00;99.90;;;;;;4943754;28;20464;-81
2021/03/15 04:52:06;;;;;;;5.32;1.45;;;3.00;99.90;;;;;;4940803;28;20081;-80
2021/03/15 04:54:29;;;;;;;9.80;1.73;;;;;;;;;;4938195;28;20499;-80
2021/03/15 04:56:56;;;;;;;10.13;1.55;;;3.00;99.90;;;;;;4945273;28;20417;-80
2021/03/15 04:59:20;;;;;;;9.18;1.10;;;2.90;99.90;;;;;;4941931;28;20079;-80
2021/03/15 05:01:48;;;;;;;11.13;1.63;;;3.00;99.90;;;;;;4932442;28;20093;-80
2021/03/15 05:04:15;;;;;;;3.25;0.98;;;2.90;99.90;;;;;;4930217;28;20082;-80
2021/03/15 05:06:41;;;;;;;7.75;1.75;;;2.90;99.90;;;;;;4933482;28;20086;-81
2021/03/15 05:09:07;;;;;;;4.82;1.35;;;2.90;99.90;;;;;;4935297;28;20082;-80
2021/03/15 05:11:32;;;;;;;8.00;1.95;;;2.90;99.90;;;;;;4940479;28;20128;-80
2021/03/15 05:13:55;;;;;;;9.43;2.10;;;2.90;99.90;;;;;;4943976;28;20085;-80
2021/03/15 05:16:18;;;;;;;5.28;1.60;;;2.90;99.90;;;;;;4938609;28;20195;-80
2021/03/15 05:18:42;;;;;;;11.88;3.03;;;;;;;;;;4935689;28;20118;-81
2021/03/15 05:21:06;;;;;;;7.97;1.48;;;3.00;99.90;;;;;;4933326;28;20082;-79
2021/03/15 05:23:34;;;;;;;10.40;1.80;;;2.90;99.90;;;;;;4937045;28;20444;-80
2021/03/15 05:26:01;;;;;;;11.18;2.35;;;2.90;99.90;;;;;;4938035;28;20086;-80
2021/03/15 05:28:26;;;;;;;10.35;1.83;;;2.90;99.90;;;;;;4937245;28;20105;-79
2021/03/15 05:30:51;;;;;;;6.07;1.80;;;2.90;99.90;;;;;;4937290;28;20477;-83
2021/03/15 05:33:18;;;;;;;7.57;2.08;;;2.90;99.90;;;;;;4931823;28;20082;-81
2021/03/15 05:35:42;;;;;;;14.18;2.17;;;3.00;99.90;;;;;;4937881;28;20504;-81
2021/03/15 05:38:06;;;;;;;7.63;2.10;;;2.90;99.90;;;;;;4940578;28;20174;-80
2021/03/15 05:40:30;;;;;;;14.82;2.72;;;3.00;99.90;;;;;;4930584;28;20089;-80
2021/03/15 05:43:32;;;;;;;12.80;2.28;;;3.00;99.90;;;;;;4941937;28;20119;-80
2021/03/15 05:46:33;;;;;;;11.05;2.47;;;1.30;99.90;;;;;;4936613;28;20093;-81
2021/03/15 05:49:24;;;;;;;14.35;2.70;;;3.00;99.90;;;;;;4932559;28;20097;-80
2021/03/15 05:52:09;;;;;;;13.00;2.75;;;3.00;99.90;;;;;;4930004;28;21599;-82
2021/03/15 05:55:16;;;;;;;21.40;2.90;;;3.10;99.90;;;;;;4935935;28;20548;-80
2021/03/15 05:58:25;;;;;;;22.80;3.58;;;3.10;99.90;;;;;;4925752;28;20103;-80
2021/03/15 06:01:04;;;;;;;17.40;2.42;;;3.20;99.90;;;;;;4939710;28;20508;-80
2021/03/15 06:04:04;;;;;;;5.43;2.42;;;3.20;99.90;;;;;;4930200;28;20448;-80
2021/03/15 06:06:36;;;;;;;13.10;2.67;;;3.20;99.90;;;;;;4932824;28;20089;-80
2021/03/15 06:09:03;;;;;;;12.48;2.17;;;3.20;99.90;;;;;;4938875;28;20491;-80
2021/03/15 06:11:32;;;;;;;8.30;2.65;;;3.30;99.90;;;;;;4937890;28;20169;-82
2021/03/15 06:13:56;;;;;;;9.18;3.13;;;3.40;99.90;;;;;;4940051;28;20521;-80
2021/03/15 06:16:20;;;;;;;14.83;3.83;;;;;;;;;;4928916;28;20087;-80
2021/03/15 06:18:44;;;;;;;13.98;3.38;;;3.50;99.90;;;;;;4937118;28;20178;-80
2021/03/15 06:21:11;;;;;;;10.88;2.88;;;3.50;99.90;;;;;;4932553;28;20166;-80
2021/03/15 06:23:33;;;;;;;19.55;3.33;;;3.50;99.90;;;;;;4942711;28;20098;-80
2021/03/15 06:26:03;;;;;;;22.85;3.58;;;3.60;99.90;;;;;;4931798;28;20096;-81
2021/03/15 06:28:26;;;;;;;10.27;2.90;;;3.60;99.90;;;;;;4931886;28;20086;-80
2021/03/15 06:30:51;;;;;;;12.32;3.63;;;3.60;99.90;;;;;;4935808;28;20086;-80
2021/03/15 06:33:17;;;;;;;12.80;3.05;;;3.60;99.90;;;;;;4933184;28;20421;-81
2021/03/15 06:35:43;;;;;;;19.45;3.78;;;3.60;99.90;;;;;;4932620;28;20097;-81
2021/03/15 06:38:09;;;;;;;23.17;3.67;;;3.70;99.90;;;;;;4939296;28;20086;-81
2021/03/15 06:40:33;;;;;;;15.48;4.03;;;3.70;99.90;;;;;;4927916;28;20086;-81
2021/03/15 06:42:58;;;;;;;19.65;3.67;;;3.70;99.90;;;;;;4941234;28;20085;-80
2021/03/15 06:45:22;;;;;;;15.13;3.40;;;3.70;99.90;;;;;;4938026;28;20093;-80
2021/03/15 06:47:44;;;;;;;11.45;3.90;;;3.70;99.90;;;;;;4938561;28;20085;-81
2021/03/15 06:50:12;;;;;;;14.15;3.13;;;3.80;99.90;;;;;;4941040;28;20444;-81
2021/03/15 06:52:55;;;;;;;21.50;4.55;;;3.80;99.90;;;;;;4935158;28;20082;-80
2021/03/15 06:55:19;;;;;;;13.43;3.42;;;3.90;99.90;;;;;;4936439;28;20090;-80
2021/03/15 06:57:42;;;;;;;15.18;3.63;;;3.90;99.90;;;;;;4930799;28;20086;-81
2021/03/15 07:03:22;;;;;;;16.38;3.72;;;4.00;99.90;;;;;;4927408;27;20594;-81
2021/03/15 07:05:55;;;;;;;17.77;4.38;;;5.20;99.90;;;;;;4922960;27;20096;-80
2021/03/15 07:08:20;;;;;;;13.57;3.90;;;4.20;99.90;;;;;;4922429;27;20087;-79
2021/03/15 07:10:45;;;;;;;8.23;3.50;;;4.20;99.90;;;;;;4924633;27;20085;-81
2021/03/15 07:13:10;;;;;;;16.48;3.92;;;4.20;99.90;;;;;;4917766;27;20120;-80
2021/03/15 07:15:34;;;;;;;12.90;3.50;;;4.30;99.90;;;;;;4919942;27;20449;-80
2021/03/15 07:18:12;;;;;;;18.20;4.50;;;4.30;99.90;;;;;;4921638;27;20501;-80
2021/03/15 07:20:42;;;;;;;14.50;4.38;;;4.40;99.90;;;;;;4920241;27;20492;-80
2021/03/15 07:23:04;;;;;;;28.63;4.93;;;4.50;99.90;;;;;;4926133;27;20513;-79
2021/03/15 07:25:33;;;;;;;23.95;4.70;;;4.50;99.90;;;;;;4922968;27;20132;-80
2021/03/15 07:27:55;;;;;;;18.50;5.05;;;4.60;99.90;;;;;;4919734;27;20108;-79
2021/03/15 07:30:34;;;;;;;20.10;4.43;;;4.60;99.90;;;;;;4923402;27;20087;-79
2021/03/15 07:33:00;;;;;;;18.30;4.30;;;4.70;99.90;;;;;;4923069;27;20173;-80
2021/03/15 07:35:27;;;;;;;18.35;4.20;;;4.70;99.90;;;;;;4925156;27;20469;-79
2021/03/15 07:37:51;;;;;;;13.00;3.75;;;4.70;99.90;;;;;;4915811;27;20083;-79
2021/03/15 07:40:27;;;;;;;14.23;4.75;;;4.70;99.90;;;;;;4906204;27;20169;-78
2021/03/15 07:43:00;;;;;;;19.10;4.85;;;4.80;99.90;;;;;;4923053;27;20078;-80
2021/03/15 07:45:33;;;;;;;15.40;4.03;;;4.80;99.90;;;;;;4914306;27;20445;-80
2021/03/15 07:48:08;;;;;;;18.13;4.05;;;4.90;99.90;;;;;;4923757;27;20087;-80
2021/03/15 07:50:33;;;;;;;19.70;5.32;;;4.90;99.90;;;;;;4921470;27;20097;-81
2021/03/15 07:52:56;;;;;;;25.85;5.40;;;5.10;99.90;;;;;;4922046;27;20082;-79
2021/03/15 07:55:32;;;;;;;19.40;5.07;;;5.10;99.90;;;;;;4916220;27;20568;-80
2021/03/15 07:57:55;;;;;;;18.85;5.65;;;5.20;99.90;;;;;;4923606;27;20466;-80
2021/03/15 08:00:20;;;;;;;16.23;4.25;;;5.30;99.90;;;;;;4924045;27;20094;-80
2021/03/15 08:02:42;;;;;;;20.38;5.78;;;5.20;99.90;;;;;;4921039;27;20082;-80
2021/03/15 08:05:06;;;;;;;23.30;5.10;;;5.20;99.90;;;;;;4922884;27;20098;-80
2021/03/15 08:07:31;;;;;;;24.65;4.82;;;5.20;99.90;;;;;;4913553;27;20086;-81
2021/03/15 08:09:56;;;;;;;15.65;4.78;;;5.20;99.90;;;;;;4920137;27;20499;-80
2021/03/15 08:12:23;;;;;;;13.73;4.57;;;5.20;99.90;;;;;;4921597;27;20086;-80
2021/03/15 08:14:48;;;;;;;14.38;4.47;;;5.20;99.90;;;;;;4904179;27;20086;-80
2021/03/15 08:17:17;;;;;;;28.05;5.00;;;5.20;99.90;;;;;;4908094;27;20091;-79
2021/03/15 08:19:41;;;;;;;25.85;4.95;;;;;;;;;;4921364;27;20555;-79
2021/03/15 08:22:05;;;;;;;12.88;3.80;;;5.40;99.90;;;;;;4918816;27;20091;-79
2021/03/15 08:24:36;;;;;;;22.15;4.97;;;5.50;99.90;;;;;;4908304;27;20091;-79
2021/03/15 08:27:00;;;;;;;16.05;3.97;;;5.60;99.90;;;;;;4905891;28;20098;-79
2021/03/15 08:29:23;;;;;;;18.63;4.20;;;5.70;99.90;;;;;;4903679;28;20098;-79
2021/03/15 08:31:49;;;;;;;23.73;5.15;;;5.70;99.90;;;;;;4907458;27;20439;-80
2021/03/15 08:34:13;;;;;;;15.32;4.80;;;5.70;99.90;;;;;;4903708;27;20106;-79
2021/03/15 08:36:40;;;;;;;11.63;4.55;;;5.70;99.90;;;;;;4904978;27;20094;-82
2021/03/15 08:39:41;;;;;;;11.15;4.47;;;5.70;99.90;;;;;;4905873;28;20546;-83
2021/03/15 08:42:24;;;;;;;19.92;5.22;;;5.80;99.90;;;;;;4905967;27;20113;-79
2021/03/15 08:44:49;;;;;;;19.60;4.38;;;6.20;99.90;;;;;;4905693;27;20160;-79
2021/03/15 08:47:12;;;;;;;18.85;5.65;;;6.40;99.90;;;;;;4905408;28;20087;-79
2021/03/15 08:49:37;;;;;;;13.25;3.10;;;6.20;99.90;;;;;;4902521;28;20117;-81
2021/03/15 08:52:00;;;;;;;18.83;3.65;;;;;;;;;;4902437;28;20103;-79
2021/03/15 08:54:42;;;;;;;28.45;7.45;;;5.90;99.90;;;;;;4904552;28;20129;-81
2021/03/15 08:57:08;;;;;;;6.28;3.17;;;5.80;99.90;;;;;;4909544;27;20117;-80
2021/03/15 08:59:33;;;;;;;9.98;3.10;;;5.90;99.90;;;;;;4906971;27;20117;-80
2021/03/15 09:02:09;;;;;;;17.53;4.63;;;5.90;99.90;;;;;;4882671;27;20554;-79
2021/03/15 09:04:47;;;;;;;15.18;3.65;;;6.00;99.90;;;;;;4860203;27;20086;-79
2021/03/15 09:07:36;;;;;;;13.57;3.17;;;6.10;99.90;;;;;;4871103;27;20106;-84
2021/03/15 09:10:42;;;;;;;21.15;3.78;;;6.00;99.90;;;;;;4873866;27;20095;-80
2021/03/15 09:13:36;;;;;;;14.23;4.47;;;6.10;99.90;;;;;;4881257;27;20480;-81
2021/03/15 09:16:09;;;;;;;11.23;3.45;;;6.30;99.90;;;;;;4860762;28;20095;-79
2021/03/15 09:19:14;;;;;;;8.57;2.72;;;6.40;99.90;;;;;;4850951;27;20122;-79
2021/03/15 09:22:01;;;;;;;18.40;3.33;;;6.40;99.90;;;;;;4848198;27;20491;-79
2021/03/15 09:24:55;;;;;;;12.07;3.17;;;6.30;99.90;;;;;;4862618;27;20089;-79
2021/03/15 09:27:36;;;;;;;5.45;2.40;;;6.60;99.90;;;;;;4858438;28;20091;-80
2021/03/15 09:30:10;;;;;;;14.05;3.47;;;6.90;99.90;;;;;;4854082;27;20239;-80
2021/03/15 09:32:36;;;;;;;11.65;2.83;;;7.50;99.90;;;;;;4882463;27;20425;-82
2021/03/15 09:35:02;;;;;;;;;;;7.60;99.90;;;;;;4862398;27;20091;-82
2021/03/15 09:37:28;;;;;;;15.25;2.55;;;7.50;99.90;;;;;;4877154;27;19969;-81
2021/03/15 09:39:52;;;;;;;10.52;2.40;;;7.80;99.90;;;;;;4852627;27;20080;-81
2021/03/15 09:42:18;;;;;;;10.05;2.42;;;7.40;99.90;;;;;;4884679;27;20083;-81
2021/03/15 09:44:43;;;;;;;14.20;4.20;;;7.00;99.90;;;;;;4876809;27;20170;-80
2021/03/15 09:47:15;;;;;;;13.18;2.38;;;6.60;99.90;;;;;;4853383;28;20597;-83
2021/03/15 09:49:45;;;;;;;13.60;3.63;;;6.30;99.90;;;;;;4873026;27;20083;-81
2021/03/15 09:55:12;;;;;;;17.30;5.18;;;6.00;99.90;;;;;;4876869;28;25602;-80
2021/03/15 09:57:40;;;;;;;14.35;2.50;;;6.20;99.90;;;;;;4876320;27;20087;-80
2021/03/15 10:00:22;;;;;;;18.40;2.80;;;6.20;99.90;;;;;;4853882;28;20111;-80
2021/03/15 10:03:01;;;;;;;6.05;2.70;;;6.30;99.90;;;;;;4858617;27;20097;-81
2021/03/15 10:05:29;;;;;;;10.23;2.95;;;6.30;99.90;;;;;;4883503;27;20082;-81
2021/03/15 10:07:54;;;;;;;9.57;2.85;;;;;;;;;;4880951;27;20172;-82
2021/03/15 10:10:30;;;;;;;12.43;3.10;;;6.30;99.90;;;;;;4844349;27;21999;-81
2021/03/15 10:13:11;;;;;;;6.95;2.47;;;6.30;99.90;;;;;;4847240;27;20546;-81
2021/03/15 10:15:37;;;;;;;5.75;2.17;;;6.30;99.90;;;;;;4865145;27;20098;-80
2021/03/15 10:18:02;;;;;;;13.20;2.90;;;6.30;99.90;;;;;;4846896;27;20091;-82
2021/03/15 10:20:27;;;;;;;6.22;2.75;;;6.30;99.90;;;;;;4865841;28;20139;-82
2021/03/15 10:22:50;;;;;;;9.50;2.00;;;6.30;99.90;;;;;;4851628;28;20099;-82
2021/03/15 10:25:27;;;;;;;3.80;1.90;;;6.10;99.90;;;;;;4898215;27;20097;-82
2021/03/15 10:28:27;;;;;;;7.95;1.88;;;6.00;99.90;;;;;;4839980;27;20152;-81
2021/03/15 10:30:53;;;;;;;5.43;2.28;;;6.00;99.90;;;;;;4874654;28;20168;-80
2021/03/15 10:33:26;;;;;;;5.50;2.10;;;6.00;99.90;;;;;;4860422;27;20545;-81
2021/03/15 10:35:54;;;;;;;10.35;1.85;;;6.00;99.90;;;;;;4863937;28;20102;-82
2021/03/15 10:38:25;;;;;;;10.05;2.20;;;5.90;99.90;;;;;;4862664;28;20749;-82
2021/03/15 10:40:52;;;;;;;8.65;2.40;;;5.80;99.90;;;;;;4854934;28;20560;-81
2021/03/15 10:43:18;;;;;;;9.10;1.83;;;5.70;99.90;;;;;;4843562;27;20094;-81
2021/03/15 10:46:18;;;;;;;9.30;2.30;;;5.60;99.90;;;;;;4863370;27;20561;-81
2021/03/15 10:48:59;;;;;;;6.25;2.08;;;5.20;99.90;;;;;;4864576;28;20091;-82
2021/03/15 10:51:59;;;;;;;9.85;2.15;;;5.00;99.90;;;;;;4863914;27;20177;-82
2021/03/15 10:54:40;;;;;;;11.40;2.10;;;4.90;99.90;;;;;;4857347;27;20105;-81
2021/03/15 10:57:35;;;;;;;6.22;1.92;;;4.20;99.90;;;;;;4861449;28;20094;-81
2021/03/15 11:00:24;;;;;;;6.82;2.05;;;4.90;99.90;;;;;;4868690;27;21998;-82
2021/03/15 11:02:51;;;;;;;6.97;2.35;;;5.00;99.90;;;;;;4852957;28;20457;-81
2021/03/15 11:05:15;;;;;;;9.85;2.30;;;5.00;99.90;;;;;;4892949;27;20125;-81
2021/03/15 11:07:38;;;;;;;7.77;2.67;;;5.10;99.90;;;;;;4903296;27;20095;-81
2021/03/15 11:10:05;;;;;;;8.52;2.13;;;4.90;99.90;;;;;;4905035;27;20501;-80
2021/03/15 11:12:40;;;;;;;3.92;2.08;;;4.70;99.90;;;;;;4898614;27;20083;-82
2021/03/15 11:15:11;;;;;;;7.13;2.40;;;4.50;99.90;;;;;;4902805;27;20116;-81
2021/03/15 11:17:33;;;;;;;6.13;3.00;;;4.50;99.90;;;;;;4901901;28;20521;-79
2021/03/15 11:19:57;;;;;;;7.75;2.00;;;4.30;99.90;;;;;;4901663;28;20091;-79
2021/03/15 11:22:20;;;;;;;5.53;2.10;;;3.20;99.90;;;;;;4899503;28;20082;-79
2021/03/15 11:24:43;;;;;;;8.25;3.42;;;;;;;;;;4898969;28;20090;-80
2021/03/15 11:27:07;;;;;;;12.45;3.15;;;4.10;99.90;;;;;;4900756;28;20101;-81
2021/03/15 11:29:38;;;;;;;8.18;2.97;;;4.10;99.90;;;;;;4899810;28;20137;-81
2021/03/15 11:32:00;;;;;;;11.40;2.70;;;4.10;99.90;;;;;;4898403;28;20086;-80
2021/03/15 11:34:24;;;;;;;10.57;2.40;;;4.20;99.90;;;;;;4900709;28;20567;-79
2021/03/15 11:36:49;;;;;;;7.43;2.55;;;4.30;99.90;;;;;;4904773;28;20112;-81
2021/03/15 11:39:14;;;;;;;7.23;2.63;;;4.40;99.90;;;;;;4894473;28;20086;-80
2021/03/15 11:41:40;;;;;;;11.75;3.17;;;4.60;99.90;;;;;;4923465;28;21076;-80
2021/03/15 11:44:03;;;;;;;7.88;2.80;;;4.70;99.90;;;;;;4900955;28;20121;-80
2021/03/15 11:46:25;;;;;;;4.70;2.40;;;4.90;99.90;;;;;;4898748;28;20106;-80
2021/03/15 11:48:49;;;;;;;3.78;2.10;;;5.10;99.90;;;;;;4922304;27;20086;-81
2021/03/15 11:51:14;;;;;;;6.43;2.53;;;5.20;99.90;;;;;;4897707;28;20110;-81
2021/03/15 11:53:38;;;;;;;8.52;2.63;;;5.20;99.90;;;;;;4900789;28;20091;-80
2021/03/15 11:56:01;;;;;;;10.98;3.25;;;5.30;99.90;;;;;;4902914;28;20143;-80
2021/03/15 11:58:23;;;;;;;6.85;2.55;;;5.30;99.90;;;;;;4908154;28;20087;-81
2021/03/15 12:00:46;;;;;;;5.00;2.63;;;5.30;99.90;;;;;;4897758;27;20148;-81
2021/03/15 12:03:09;;;;;;;5.55;2.80;;;5.40;99.90;;;;;;4901803;28;20137;-79
2021/03/15 12:05:31;;;;;;;8.02;2.63;;;5.40;99.90;;;;;;4904395;28;20084;-80
2021/03/15 12:07:54;;;;;;;8.18;2.42;;;5.40;99.90;;;;;;4902241;28;20083;-79
2021/03/15 12:10:18;;;;;;;13.13;2.60;;;5.50;99.90;;;;;;4908059;28;20090;-80
2021/03/15 12:12:41;;;;;;;11.60;2.58;;;5.50;99.90;;;;;;4907671;28;20090;-80
2021/03/15 12:15:07;;;;;;;3.50;2.08;;;5.60;99.90;;;;;;4897410;28;20473;-80
2021/03/15 12:17:29;;;;;;;;;;;5.60;99.90;;;;;;4889140;28;20522;-80
2021/03/15 12:19:52;;;;;;;7.18;2.00;;;5.70;99.90;;;;;;4902060;28;19970;-80
2021/03/15 12:22:16;;;;;;;5.22;1.80;;;5.70;99.90;;;;;;4928638;27;20871;-80
2021/03/15 12:24:38;;;;;;;4.78;1.80;;;5.80;99.90;;;;;;4903721;28;20714;-79
2021/03/15 12:27:03;;;;;;;5.95;1.70;;;5.80;99.90;;;;;;4903140;28;20647;-81
2021/03/15 12:29:26;;;;;;;5.30;2.05;;;5.80;99.90;;;;;;4897745;28;20223;-80
2021/03/15 12:31:50;;;;;;;4.43;2.05;;;;;;;;;;4868855;28;20557;-80
2021/03/15 12:34:16;;;;;;;3.63;2.00;;;5.70;99.90;;;;;;4908436;28;20079;-81
2021/03/15 12:36:38;;;;;;;3.47;1.80;;;5.60;99.90;;;;;;4889074;28;20182;-81
2021/03/15 12:39:01;;;;;;;4.47;2.25;;;5.60;99.90;;;;;;4899950;28;20094;-79
2021/03/15 12:41:24;;;;;;;3.28;1.70;;;5.60;99.90;;;;;;4905320;28;20090;-81
2021/03/15 12:43:48;;;;;;;5.50;2.28;;;;;;;;;;4904601;28;20091;-81
2021/03/15 12:46:18;;;;;;;3.83;1.63;;;5.70;99.90;;;;;;4901362;28;20091;-81
2021/03/15 12:48:40;;;;;;;2.78;1.70;;;5.80;99.90;;;;;;4901092;28;20113;-80
2021/03/15 12:51:03;;;;;;;4.05;1.73;;;;;;;;;;4891231;28;20091;-81
2021/03/15 12:53:26;;;;;;;5.95;2.03;;;5.80;99.90;;;;;;4903999;28;20129;-82
2021/03/15 12:55:48;;;;;;;6.40;1.67;;;5.80;99.90;;;;;;4903830;28;20437;-81
2021/03/15 12:58:11;;;;;;;6.07;1.77;;;5.80;99.90;;;;;;4901100;28;20094;-81
2021/03/15 13:00:34;;;;;;;2.88;1.70;;;5.70;99.90;;;;;;4901109;28;20137;-81
2021/03/15 13:02:58;;;;;;;5.78;1.60;;;5.60;99.90;;;;;;4899728;28;20091;-81
2021/03/15 13:05:20;;;;;;;3.60;1.30;;;5.50;99.90;;;;;;4901388;27;20157;-80
2021/03/15 13:07:43;;;;;;;2.60;1.02;;;5.50;99.90;;;;;;4899879;27;20427;-80